Time;durP1;ratioP1;P1;durP2;ratioP2;P2;SDS_P1;SDS_P2;PMS_P1;PMS_P2;Temp;Humidity;BMP_temperature;BMP_pressure;BME280_temperature;BME280_humidity;BME280_pressure;Samples;Min_cycle;Max_cycle;Signal;HPM_P1;HPM_P2
2021/08/26 06:45:06;;;;;;;4.43;2.53;;;;;;;;;;5209842;23;20048;-89
2021/08/26 06:47:31;;;;;;;3.47;2.30;;;;;;;;;;4917129;29;20127;-80
2021/08/26 06:49:56;;;;;;;2.80;2.08;;;;;;;;;;4916717;29;20155;-87
2021/08/26 06:52:22;;;;;;;3.72;2.17;;;;;;;;;;4915212;29;20084;-88
2021/08/26 06:54:48;;;;;;;3.10;1.92;;;;;;;;;;4896996;29;20021;-78
2021/08/26 06:57:13;;;;;;;2.50;2.20;;;;;;;;;;4897482;29;20033;-87
2021/08/26 06:59:39;;;;;;;2.95;2.10;;;;;;;;;;4898042;29;20060;-81
2021/08/26 07:02:04;;;;;;;4.90;2.47;;;;;;;;;;4909018;29;20036;-87
2021/08/26 07:04:30;;;;;;;3.45;2.35;;;;;;;;;;4902412;29;20353;-89
2021/08/26 07:06:55;;;;;;;2.13;1.92;;;;;;;;;;4898011;29;20476;-89
2021/08/26 07:09:22;;;;;;;2.28;2.05;;;;;;;;;;4898270;29;20076;-89
2021/08/26 07:11:48;;;;;;;3.22;1.90;;;;;;;;;;4898211;29;20081;-89
2021/08/26 07:14:13;;;;;;;4.28;2.38;;;;;;;;;;4898299;29;20032;-87
2021/08/26 07:16:38;;;;;;;3.88;2.60;;;;;;;;;;4898101;29;20057;-87
2021/08/26 07:19:04;;;;;;;5.30;2.47;;;;;;;;;;4908535;29;20032;-82
2021/08/26 07:21:29;;;;;;;4.72;2.03;;;;;;;;;;4918695;29;20427;-90
2021/08/26 07:23:55;;;;;;;2.72;1.90;;;;;;;;;;4915977;29;20099;-89
2021/08/26 07:26:20;;;;;;;3.70;1.85;;;;;;;;;;4901064;29;20100;-86
2021/08/26 07:28:46;;;;;;;3.72;1.92;;;;;;;;;;4902144;29;20037;-81
2021/08/26 07:31:12;;;;;;;2.92;2.40;;;;;;;;;;4905358;29;20065;-83
2021/08/26 07:33:37;;;;;;;2.63;2.15;;;;;;;;;;4904830;29;20496;-83
2021/08/26 07:36:04;;;;;;;3.50;1.90;;;;;;;;;;4906350;29;20100;-82
2021/08/26 07:38:29;;;;;;;2.33;1.92;;;;;;;;;;4902774;29;20028;-83
2021/08/26 07:40:55;;;;;;;2.35;2.15;;;;;;;;;;4898452;29;20036;-82
2021/08/26 07:43:25;;;;;;;2.53;1.95;;;;;;;;;;4900542;29;20251;-81
2021/08/26 07:45:50;;;;;;;6.18;2.30;;;;;;;;;;4900484;29;20049;-81
2021/08/26 07:48:17;;;;;;;2.50;1.88;;;;;;;;;;4900478;29;20112;-81
2021/08/26 07:50:43;;;;;;;3.20;1.92;;;;;;;;;;4900309;29;20468;-82
2021/08/26 07:53:08;;;;;;;2.20;1.50;;;;;;;;;;4905076;29;20102;-81
2021/08/26 07:55:34;;;;;;;3.15;2.03;;;;;;;;;;4900263;29;20035;-81
2021/08/26 07:57:59;;;;;;;4.25;1.90;;;;;;;;;;4900496;29;20024;-81
2021/08/26 08:00:25;;;;;;;1.80;1.70;;;;;;;;;;4899931;29;20041;-80
2021/08/26 08:02:50;;;;;;;2.85;1.90;;;;;;;;;;4899933;29;20084;-80
2021/08/26 08:05:15;;;;;;;6.53;1.83;;;;;;;;;;4900153;29;20028;-80
2021/08/26 08:07:42;;;;;;;2.72;1.80;;;;;;;;;;4900677;29;20387;-81
2021/08/26 08:10:08;;;;;;;3.25;1.60;;;;;;;;;;4900244;29;20444;-81
2021/08/26 08:12:33;;;;;;;4.25;1.95;;;;;;;;;;4900514;29;20033;-81
2021/08/26 08:14:59;;;;;;;4.25;1.80;;;;;;;;;;4900460;29;20440;-81
2021/08/26 08:17:24;;;;;;;3.55;1.90;;;;;;;;;;4901023;29;20028;-82
2021/08/26 08:19:49;;;;;;;3.50;1.70;;;;;;;;;;4900269;29;20028;-80
2021/08/26 08:22:15;;;;;;;2.70;1.80;;;;;;;;;;4900357;29;20396;-80
2021/08/26 08:24:40;;;;;;;2.80;1.90;;;;;;;;;;4900282;29;20029;-80
2021/08/26 08:27:06;;;;;;;2.85;1.73;;;;;;;;;;4900283;29;20383;-81
2021/08/26 08:29:31;;;;;;;3.45;1.55;;;;;;;;;;4900140;29;20502;-80
2021/08/26 08:31:56;;;;;;;1.73;1.60;;;;;;;;;;4900010;29;20103;-80
2021/08/26 16:53:56;;;;;;;3.28;2.75;;;;;;;;;;4932500;29;20047;-78
2021/08/26 16:56:22;;;;;;;5.82;3.20;;;;;;;;;;4936310;29;20051;-78
2021/08/26 16:58:47;;;;;;;4.78;2.90;;;;;;;;;;4937425;29;20075;-78
2021/08/26 17:01:13;;;;;;;3.35;3.10;;;;;;;;;;4923667;29;20084;-78
2021/08/26 17:03:38;;;;;;;3.83;2.72;;;;;;;;;;4918276;29;20067;-79
2021/08/26 17:06:05;;;;;;;4.65;3.10;;;;;;;;;;4917272;29;20115;-79
2021/08/26 17:08:31;;;;;;;4.82;3.00;;;;;;;;;;4918418;29;20042;-79
2021/08/26 17:10:56;;;;;;;5.18;3.65;;;;;;;;;;4918295;29;20028;-80
2021/08/26 17:13:22;;;;;;;5.40;4.20;;;;;;;;;;4918199;29;20387;-80
2021/08/26 17:15:48;;;;;;;7.88;3.28;;;;;;;;;;4916999;29;20047;-80
2021/08/26 17:18:15;;;;;;;3.42;2.88;;;;;;;;;;4918284;29;20036;-80
2021/08/26 17:20:40;;;;;;;4.10;3.00;;;;;;;;;;4918096;29;20028;-80
2021/08/26 17:23:07;;;;;;;3.60;3.30;;;;;;;;;;4918128;29;20029;-80
2021/08/26 17:25:32;;;;;;;3.53;2.85;;;;;;;;;;4918214;29;20056;-80
2021/08/26 17:27:58;;;;;;;4.63;3.60;;;;;;;;;;4917346;29;20110;-85
2021/08/26 17:30:23;;;;;;;5.15;3.95;;;;;;;;;;4917314;29;20087;-85
2021/08/26 17:32:49;;;;;;;6.05;2.83;;;;;;;;;;4917484;29;20455;-85
2021/08/26 17:35:15;;;;;;;5.97;2.90;;;;;;;;;;4917115;29;20028;-82
2021/08/26 17:37:43;;;;;;;3.72;3.03;;;;;;;;;;4917648;29;20547;-78
2021/08/26 17:40:16;;;;;;;3.35;2.95;;;;;;;;;;4918388;29;20433;-82
2021/08/26 17:42:42;;;;;;;4.68;3.28;;;;;;;;;;4917871;29;20502;-82
2021/08/26 17:45:09;;;;;;;4.25;3.22;;;;;;;;;;4917719;29;20036;-83
2021/08/26 17:47:34;;;;;;;3.70;2.85;;;;;;;;;;4917689;29;20036;-79
2021/08/26 17:50:00;;;;;;;5.07;3.58;;;;;;;;;;4917724;29;20092;-80
2021/08/26 17:52:25;;;;;;;3.88;3.58;;;;;;;;;;4917512;29;20087;-85
2021/08/26 17:54:51;;;;;;;3.35;2.88;;;;;;;;;;4917395;29;20051;-81
2021/08/26 17:57:16;;;;;;;3.30;2.97;;;;;;;;;;4917590;29;20028;-82
2021/08/26 17:59:42;;;;;;;4.05;3.13;;;;;;;;;;4917378;29;20434;-78
2021/08/26 18:02:07;;;;;;;4.22;3.38;;;;;;;;;;4917779;29;20051;-83
2021/08/26 18:04:32;;;;;;;5.45;3.28;;;;;;;;;;4915705;29;20032;-77
2021/08/26 18:06:58;;;;;;;4.60;3.38;;;;;;;;;;4917502;29;20123;-78
2021/08/26 18:09:23;;;;;;;5.40;3.55;;;;;;;;;;4917723;29;20379;-78
2021/08/26 18:11:49;;;;;;;5.35;3.05;;;;;;;;;;4917437;29;20039;-78
2021/08/26 18:14:14;;;;;;;3.67;2.90;;;;;;;;;;4917416;29;20066;-76
2021/08/26 18:16:40;;;;;;;6.70;3.47;;;;;;;;;;4917490;29;20446;-77
2021/08/26 18:19:05;;;;;;;4.30;3.20;;;;;;;;;;4916996;29;20028;-76
2021/08/26 18:21:31;;;;;;;4.78;3.10;;;;;;;;;;4916979;29;20036;-80
2021/08/26 18:23:56;;;;;;;6.47;2.97;;;;;;;;;;4916241;29;20032;-77
2021/08/26 18:26:22;;;;;;;7.55;3.17;;;;;;;;;;4917448;29;20044;-77
2021/08/26 18:28:48;;;;;;;3.53;3.03;;;;;;;;;;4917232;29;20048;-77
2021/08/26 18:31:13;;;;;;;3.53;2.65;;;;;;;;;;4917243;29;20047;-79
2021/08/26 18:33:39;;;;;;;3.55;3.10;;;;;;;;;;4917387;29;20024;-77
2021/08/26 18:36:05;;;;;;;4.88;3.05;;;;;;;;;;4917139;29;20387;-77
2021/08/26 18:38:31;;;;;;;5.78;3.40;;;;;;;;;;4917212;29;20032;-77
2021/08/26 18:40:56;;;;;;;6.78;3.70;;;;;;;;;;4917196;29;20447;-77
2021/08/26 18:43:22;;;;;;;5.25;3.70;;;;;;;;;;4917239;29;20542;-77
2021/08/26 18:45:47;;;;;;;5.25;3.65;;;;;;;;;;4917490;29;20039;-80
2021/08/26 18:48:13;;;;;;;4.30;3.72;;;;;;;;;;4918001;29;20050;-78
2021/08/26 18:50:39;;;;;;;5.95;3.60;;;;;;;;;;4917633;29;20029;-78
2021/08/26 18:53:04;;;;;;;3.45;3.15;;;;;;;;;;4917500;29;20083;-78
2021/08/26 18:55:31;;;;;;;4.90;3.50;;;;;;;;;;4916875;29;20669;-77
2021/08/26 18:57:56;;;;;;;4.82;3.15;;;;;;;;;;4916904;29;20049;-78
2021/08/26 19:00:22;;;;;;;4.70;3.45;;;;;;;;;;4916866;29;20406;-77
2021/08/26 19:02:49;;;;;;;6.57;3.55;;;;;;;;;;4917174;29;20467;-78
2021/08/26 19:05:15;;;;;;;4.70;3.28;;;;;;;;;;4917058;29;20032;-77
2021/08/26 19:07:40;;;;;;;4.22;3.50;;;;;;;;;;4917099;29;20028;-77
2021/08/26 19:10:06;;;;;;;5.50;4.10;;;;;;;;;;4916844;29;20024;-78
2021/08/26 19:12:32;;;;;;;5.60;3.55;;;;;;;;;;4916730;29;20032;-78
2021/08/26 19:14:59;;;;;;;4.47;3.42;;;;;;;;;;4916539;29;20083;-77
2021/08/26 19:17:29;;;;;;;6.25;3.00;;;;;;;;;;4919660;29;20038;-78
2021/08/26 19:19:55;;;;;;;6.40;3.85;;;;;;;;;;4920362;29;20107;-77
2021/08/26 19:22:22;;;;;;;4.18;3.20;;;;;;;;;;4920289;29;20454;-80
2021/08/26 19:24:47;;;;;;;5.20;3.08;;;;;;;;;;4920142;29;20079;-74
2021/08/26 19:27:13;;;;;;;4.80;3.28;;;;;;;;;;4919883;29;20028;-77
2021/08/26 19:29:38;;;;;;;5.22;3.53;;;;;;;;;;4920332;29;20386;-78
2021/08/26 19:32:04;;;;;;;4.63;3.22;;;;;;;;;;4920277;29;20028;-78
2021/08/26 19:34:29;;;;;;;5.70;3.70;;;;;;;;;;4918779;29;20036;-78
2021/08/26 19:36:55;;;;;;;6.63;3.95;;;;;;;;;;4920193;29;20500;-78
2021/08/26 19:39:20;;;;;;;5.32;3.40;;;;;;;;;;4920162;29;20494;-80
2021/08/26 19:41:46;;;;;;;4.80;3.22;;;;;;;;;;4920065;29;20028;-79
2021/08/26 19:44:11;;;;;;;10.55;4.28;;;;;;;;;;4919366;29;20474;-77
2021/08/26 19:46:38;;;;;;;5.68;3.60;;;;;;;;;;4919570;29;20060;-77
2021/08/26 19:49:04;;;;;;;4.22;3.20;;;;;;;;;;4920010;29;20034;-77
2021/08/26 19:51:29;;;;;;;4.63;3.63;;;;;;;;;;4919536;29;20024;-78
2021/08/26 19:53:55;;;;;;;7.28;3.50;;;;;;;;;;4919490;29;20380;-77
2021/08/26 19:56:20;;;;;;;6.88;3.97;;;;;;;;;;4919798;29;20039;-77
2021/08/26 19:58:45;;;;;;;3.88;3.30;;;;;;;;;;4919602;29;20020;-78
2021/08/26 20:01:16;;;;;;;4.43;3.30;;;;;;;;;;4918395;29;20028;-78
2021/08/26 20:03:42;;;;;;;4.72;3.20;;;;;;;;;;4919504;29;20479;-77
2021/08/26 20:06:07;;;;;;;5.28;3.15;;;;;;;;;;4919400;29;20028;-77
2021/08/26 20:08:34;;;;;;;4.55;3.90;;;;;;;;;;4919708;29;20468;-77
2021/08/26 20:11:00;;;;;;;4.72;4.32;;;;;;;;;;4919297;29;20159;-77
2021/08/26 20:13:25;;;;;;;4.75;3.80;;;;;;;;;;4919240;29;20056;-77
2021/08/26 20:15:51;;;;;;;7.35;3.70;;;;;;;;;;4918010;29;20103;-78
2021/08/26 20:18:18;;;;;;;6.45;3.80;;;;;;;;;;4919226;29;20476;-77
2021/08/26 20:20:44;;;;;;;4.00;3.20;;;;;;;;;;4919486;29;20020;-77
2021/08/26 20:23:11;;;;;;;6.32;3.55;;;;;;;;;;4919381;29;20483;-77
2021/08/26 20:25:36;;;;;;;6.10;3.75;;;;;;;;;;4919111;29;20040;-81
2021/08/26 20:28:02;;;;;;;5.15;3.67;;;;;;;;;;4918255;29;20051;-77
2021/08/26 20:30:29;;;;;;;5.95;3.47;;;;;;;;;;4918287;29;20036;-76
2021/08/26 20:32:54;;;;;;;5.45;3.60;;;;;;;;;;4916128;29;20035;-77
2021/08/26 20:35:20;;;;;;;4.47;3.60;;;;;;;;;;4918402;29;20103;-77
2021/08/26 20:37:45;;;;;;;4.28;3.40;;;;;;;;;;4918779;29;20032;-76
2021/08/26 20:40:11;;;;;;;3.53;3.20;;;;;;;;;;4918755;29;20120;-77
2021/08/26 20:42:37;;;;;;;3.58;3.22;;;;;;;;;;4919127;29;20431;-81
2021/08/26 20:45:03;;;;;;;5.18;3.55;;;;;;;;;;4917695;29;20032;-82
2021/08/26 20:47:29;;;;;;;5.95;3.25;;;;;;;;;;4918763;29;20032;-82
2021/08/26 20:49:54;;;;;;;6.60;3.78;;;;;;;;;;4918568;29;20075;-82
2021/08/26 20:52:20;;;;;;;4.72;4.13;;;;;;;;;;4918846;29;20032;-81
2021/08/26 20:54:46;;;;;;;4.45;3.20;;;;;;;;;;4918404;29;20060;-82
2021/08/26 20:57:12;;;;;;;5.22;3.47;;;;;;;;;;4918686;29;20594;-80
